Time;durP1;ratioP1;P1;durP2;ratioP2;P2;SDS_P1;SDS_P2;PMS_P1;PMS_P2;Temp;Humidity;BMP_temperature;BMP_pressure;BME280_temperature;BME280_humidity;BME280_pressure;Samples;Min_cycle;Max_cycle;Signal;HPM_P1;HPM_P2
2021/11/02 00:02:01;;;;;;;;;;;;;;;;;;5071554;28;19931;-78
2021/11/02 00:04:29;;;;;;;;;;;;;;;;;;5072009;28;19986;-81
2021/11/02 00:06:56;;;;;;;;;;;;;;;;;;5071756;28;19936;-81
2021/11/02 00:09:28;;;;;;;;;;;;;;;;;;5071649;28;20067;-79
2021/11/02 00:11:55;;;;;;;;;;;;;;;;;;5072171;28;20039;-79
2021/11/02 00:14:26;;;;;;;;;;;;;;;;;;5071441;28;20341;-78
2021/11/02 00:16:56;;;;;;;;;;;;;;;;;;5071583;28;19932;-80
2021/11/02 00:19:25;;;;;;;;;;;;;;;;;;5071555;28;19925;-79
2021/11/02 00:21:54;;;;;;;;;;;;;;;;;;5071699;28;19968;-80
2021/11/02 00:27:03;;;;;;;;;;;;;;;;;;5069264;28;19928;-79
2021/11/02 00:29:31;;;;;;;;;;;;;;;;;;5071382;28;20381;-82
2021/11/02 00:31:58;;;;;;;;;;;;;;;;;;5071981;28;19931;-80
2021/11/02 00:34:25;;;;;;;;;;;;;;;;;;5071252;28;19928;-79
2021/11/02 00:36:53;;;;;;;;;;;;;;;;;;5071152;28;19924;-80
2021/11/02 00:39:20;;;;;;;;;;;;;;;;;;5071350;28;19932;-80
2021/11/02 00:41:47;;;;;;;;;;;;;;;;;;5071341;28;19924;-80
2021/11/02 00:44:14;;;;;;;;;;;;;;;;;;5071291;28;19928;-80
2021/11/02 00:46:43;;;;;;;;;;;;;;;;;;5070971;28;19925;-80
2021/11/02 00:49:16;;;;;;;;;;;;;;;;;;5071327;28;19932;-79
2021/11/02 00:51:44;;;;;;;;;;;;;;;;;;5071260;28;20304;-80
2021/11/02 00:54:11;;;;;;;;;;;;;;;;;;5071291;28;20372;-81
2021/11/02 00:56:38;;;;;;;;;;;;;;;;;;5070939;28;19951;-81
2021/11/02 00:59:05;;;;;;;;;;;;;;;;;;5070902;28;20357;-79
2021/11/02 01:01:32;;;;;;;;;;;;;;;;;;5071301;28;19925;-79
2021/11/02 01:04:04;;;;;;;;;;;;;;;;;;5070737;28;19948;-79
2021/11/02 01:06:31;;;;;;;;;;;;;;;;;;5070561;28;19924;-79
2021/11/02 01:08:58;;;;;;;;;;;;;;;;;;5071163;28;19928;-79
2021/11/02 01:11:25;;;;;;;;;;;;;;;;;;5070917;28;19932;-79
2021/11/02 01:13:54;;;;;;;;;;;;;;;;;;5070773;28;19935;-79
2021/11/02 01:16:24;;;;;;;;;;;;;;;;;;5071035;28;20365;-80
2021/11/02 01:18:51;;;;;;;;;;;;;;;;;;5070713;28;20015;-81
2021/11/02 01:21:20;;;;;;;;;;;;;;;;;;5070563;28;20369;-80
2021/11/02 01:23:48;;;;;;;;;;;;;;;;;;5070803;28;20015;-80
2021/11/02 01:26:15;;;;;;;;;;;;;;;;;;5070632;28;19924;-80
2021/11/02 01:28:42;;;;;;;;;;;;;;;;;;5070898;28;19924;-79
2021/11/02 01:31:09;;;;;;;;;;;;;;;;;;5071091;28;19939;-81
2021/11/02 01:33:37;;;;;;;;;;;;;;;;;;5070784;28;19925;-81
2021/11/02 01:36:04;;;;;;;;;;;;;;;;;;5070924;28;19928;-82
2021/11/02 01:38:33;;;;;;;;;;;;;;;;;;5070366;28;19928;-79
2021/11/02 01:41:00;;;;;;;;;;;;;;;;;;5070505;28;20331;-79
2021/11/02 01:43:28;;;;;;;;;;;;;;;;;;5070801;28;20369;-79
2021/11/02 01:45:55;;;;;;;;;;;;;;;;;;5072268;28;19928;-79
2021/11/02 01:48:23;;;;;;;;;;;;;;;;;;5074510;28;19935;-80
2021/11/02 01:50:51;;;;;;;;;;;;;;;;;;5074335;28;19932;-79
2021/11/02 01:53:18;;;;;;;;;;;;;;;;;;5074260;28;20316;-79
2021/11/02 01:55:47;;;;;;;;;;;;;;;;;;5074304;28;19928;-79
2021/11/02 01:58:15;;;;;;;;;;;;;;;;;;5074403;28;19936;-79
2021/11/02 02:00:44;;;;;;;;;;;;;;;;;;5074191;28;19991;-79
2021/11/02 02:03:16;;;;;;;;;;;;;;;;;;5074083;28;19932;-79
2021/11/02 02:05:50;;;;;;;;;;;;;;;;;;5074016;28;19932;-79
2021/11/02 02:08:20;;;;;;;;;;;;;;;;;;5073810;28;20345;-79
2021/11/02 02:10:57;;;;;;;;;;;;;;;;;;5074138;28;19936;-80
2021/11/02 02:13:29;;;;;;;;;;;;;;;;;;5073914;28;19924;-79
2021/11/02 02:16:01;;;;;;;;;;;;;;;;;;5073816;28;19936;-79
2021/11/02 02:18:32;;;;;;;;;;;;;;;;;;5073646;28;19925;-80
2021/11/02 02:21:09;;;;;;;;;;;;;;;;;;5074245;28;19930;-79
2021/11/02 02:23:46;;;;;;;;;;;;;;;;;;5074154;28;19932;-83
2021/11/02 02:26:29;;;;;;;;;;;;;;;;;;5073697;28;19924;-80
2021/11/02 02:29:02;;;;;;;;;;;;;;;;;;5073654;28;19929;-79
2021/11/02 02:31:32;;;;;;;;;;;;;;;;;;5073977;28;19929;-79
2021/11/02 02:34:00;;;;;;;;;;;;;;;;;;5073831;28;19931;-80
2021/11/02 02:36:28;;;;;;;;;;;;;;;;;;5073435;28;19924;-79
2021/11/02 02:38:56;;;;;;;;;;;;;;;;;;5073228;28;20389;-80
2021/11/02 02:41:24;;;;;;;;;;;;;;;;;;5073246;28;19925;-79
2021/11/02 02:43:52;;;;;;;;;;;;;;;;;;5073777;28;19924;-79
2021/11/02 02:46:21;;;;;;;;;;;;;;;;;;5073647;28;19935;-79
2021/11/02 02:48:49;;;;;;;;;;;;;;;;;;5073201;28;19924;-79
2021/11/02 02:51:17;;;;;;;;;;;;;;;;;;5073453;28;19935;-79
2021/11/02 02:53:45;;;;;;;;;;;;;;;;;;5073230;28;19924;-81
2021/11/02 02:56:13;;;;;;;;;;;;;;;;;;5072872;28;19925;-79
2021/11/02 02:58:42;;;;;;;;;;;;;;;;;;5073457;28;19928;-79
2021/11/02 03:01:10;;;;;;;;;;;;;;;;;;5073341;28;19925;-81
2021/11/02 03:03:40;;;;;;;;;;;;;;;;;;5073036;28;19990;-82
2021/11/02 03:06:10;;;;;;;;;;;;;;;;;;5072600;28;19936;-82
2021/11/02 03:08:37;;;;;;;;;;;;;;;;;;5072707;28;19925;-82
2021/11/02 03:11:06;;;;;;;;;;;;;;;;;;5072943;28;19935;-82
2021/11/02 03:13:34;;;;;;;;;;;;;;;;;;5072994;28;19924;-82
2021/11/02 03:16:04;;;;;;;;;;;;;;;;;;5072911;28;19928;-81
2021/11/02 03:18:52;;;;;;;;;;;;;;;;;;5072773;28;19993;-82
2021/11/02 03:49:21;;;;;;;;;;;;;;;;;;5072060;28;20351;-81
2021/11/02 03:52:15;;;;;;;;;;;;;;;;;;5072327;28;19968;-81
2021/11/02 03:54:46;;;;;;;;;;;;;;;;;;5071855;28;20139;-81
2021/11/02 03:57:28;;;;;;;;;;;;;;;;;;5072325;28;19935;-79
2021/11/02 04:00:20;;;;;;;;;;;;;;;;;;5071820;28;19928;-79
2021/11/02 04:31:26;;;;;;;;;;;;;;;;;;5108963;28;19990;-79
2021/11/02 05:07:23;;;;;;;;;;;;;;;;;;5108050;28;20001;-79
2021/11/02 05:48:16;;;;;;;;;;;;;;;;;;5100347;28;20446;-80
2021/11/02 05:56:30;;;;;;;;;;;;;;;;;;5153426;27;19934;-80
2021/11/02 05:59:12;;;;;;;;;;;;;;;;;;5149901;27;19930;-79
2021/11/02 06:01:50;;;;;;;;;;;;;;;;;;5147050;27;19951;-79
2021/11/02 06:04:42;;;;;;;;;;;;;;;;;;5149810;27;19923;-79
2021/11/02 06:07:40;;;;;;;;;;;;;;;;;;5149852;27;19923;-79
2021/11/02 06:10:20;;;;;;;;;;;;;;;;;;5145862;27;19931;-79
2021/11/02 06:29:31;;;;;;;;;;;;;;;;;;5130324;27;20054;-80
2021/11/02 06:32:03;;;;;;;;;;;;;;;;;;5146763;27;19923;-79
2021/11/02 06:34:39;;;;;;;;;;;;;;;;;;5145769;27;19969;-80
2021/11/02 06:43:10;;;;;;;;;;;;;;;;;;5103404;27;20006;-78
2021/11/02 06:48:42;;;;;;;;;;;;;;;;;;5124399;28;20054;-80
2021/11/02 07:15:12;;;;;;;;;;;;;;;;;;5111606;28;20026;-79
2021/11/02 07:16:51;;;;;;;;;;;;;;;;;;5132041;27;20069;-79
2021/11/02 07:19:25;;;;;;;;;;;;;;;;;;5111494;28;19928;-78
2021/11/02 07:22:00;;;;;;;;;;;;;;;;;;5111432;28;19924;-80
2021/11/02 07:24:33;;;;;;;;;;;;;;;;;;5111451;27;19924;-80
2021/11/02 07:27:13;;;;;;;;;;;;;;;;;;5111284;28;20633;-79
2021/11/02 08:47:21;;;;;;;;;;;;;;;;;;5128998;27;19979;-80
2021/11/02 08:49:49;;;;;;;;;;;;;;;;;;5130401;27;19963;-78
2021/11/02 08:52:17;;;;;;;;;;;;;;;;;;5129523;27;19934;-80
2021/11/02 08:54:45;;;;;;;;;;;;;;;;;;5129559;27;20081;-79
2021/11/02 08:57:13;;;;;;;;;;;;;;;;;;5130195;27;20337;-78
2021/11/02 08:59:40;;;;;;;;;;;;;;;;;;5130163;27;19927;-78
2021/11/02 09:02:08;;;;;;;;;;;;;;;;;;5129227;27;19934;-79
2021/11/02 09:04:39;;;;;;;;;;;;;;;;;;5129618;27;20380;-77
2021/11/02 09:07:07;;;;;;;;;;;;;;;;;;5129173;27;20161;-77
2021/11/02 09:09:36;;;;;;;;;;;;;;;;;;5129574;27;20442;-77
2021/11/02 09:12:04;;;;;;;;;;;;;;;;;;5125088;27;19945;-78
2021/11/02 09:14:36;;;;;;;;;;;;;;;;;;5122833;27;19927;-77
2021/11/02 09:17:04;;;;;;;;;;;;;;;;;;5128880;27;19927;-77
2021/11/02 09:19:33;;;;;;;;;;;;;;;;;;5111324;27;20018;-76
2021/11/02 09:22:01;;;;;;;;;;;;;;;;;;5129262;27;19924;-77
2021/11/02 09:24:29;;;;;;;;;;;;;;;;;;5129180;27;19939;-78
2021/11/02 09:26:57;;;;;;;;;;;;;;;;;;5129080;27;19939;-78
2021/11/02 09:29:24;;;;;;;;;;;;;;;;;;5128649;27;20013;-77
2021/11/02 09:31:54;;;;;;;;;;;;;;;;;;5128957;27;20275;-77
2021/11/02 09:34:21;;;;;;;;;;;;;;;;;;5128604;27;19927;-77
2021/11/02 09:36:53;;;;;;;;;;;;;;;;;;5128212;27;20237;-78
2021/11/02 09:39:23;;;;;;;;;;;;;;;;;;5128957;27;19934;-78
2021/11/02 09:42:10;;;;;;;;;;;;;;;;;;5128762;27;19927;-79
2021/11/02 09:44:54;;;;;;;;;;;;;;;;;;5129156;27;19931;-79
2021/11/02 09:47:39;;;;;;;;;;;;;;;;;;5128515;27;19927;-78
2021/11/02 09:50:14;;;;;;;;;;;;;;;;;;5128656;28;19938;-77
2021/11/02 09:53:01;;;;;;;;;;;;;;;;;;5128801;27;19938;-78
2021/11/02 09:55:42;;;;;;;;;;;;;;;;;;5128599;28;19927;-77
2021/11/02 09:58:17;;;;;;;;;;;;;;;;;;5128803;28;19939;-78
2021/11/02 10:01:04;;;;;;;;;;;;;;;;;;5128454;28;19927;-79
2021/11/02 10:03:55;;;;;;;;;;;;;;;;;;5128873;28;19954;-78
2021/11/02 10:06:37;;;;;;;;;;;;;;;;;;5113079;28;19923;-79
2021/11/02 10:09:07;;;;;;;;;;;;;;;;;;5128425;27;19927;-78
2021/11/02 10:11:39;;;;;;;;;;;;;;;;;;5127689;28;19947;-78
2021/11/02 10:14:26;;;;;;;;;;;;;;;;;;5120098;28;20052;-80
2021/11/02 10:17:02;;;;;;;;;;;;;;;;;;5125852;27;19924;-78
2021/11/02 10:19:38;;;;;;;;;;;;;;;;;;5127586;27;19927;-78
2021/11/02 10:22:26;;;;;;;;;;;;;;;;;;5128887;28;20032;-78
2021/11/02 10:25:03;;;;;;;;;;;;;;;;;;5128185;27;19935;-78
2021/11/02 10:27:38;;;;;;;;;;;;;;;;;;5125342;28;19927;-78
2021/11/02 10:30:32;;;;;;;;;;;;;;;;;;5129242;28;19971;-77
2021/11/02 10:33:04;;;;;;;;;;;;;;;;;;5127974;27;20322;-77
2021/11/02 10:35:37;;;;;;;;;;;;;;;;;;5128374;28;20154;-77
2021/11/02 10:38:09;;;;;;;;;;;;;;;;;;5127900;28;19992;-80
2021/11/02 10:40:42;;;;;;;;;;;;;;;;;;5108000;28;19927;-83
2021/11/02 10:43:29;;;;;;;;;;;;;;;;;;5113548;27;19928;-84
2021/11/02 10:45:58;;;;;;;;;;;;;;;;;;5125761;27;19932;-82
2021/11/02 10:48:29;;;;;;;;;;;;;;;;;;5131182;27;19931;-81
2021/11/02 10:51:03;;;;;;;;;;;;;;;;;;5132465;27;20276;-81
2021/11/02 10:53:37;;;;;;;;;;;;;;;;;;5132972;27;19938;-81
2021/11/02 10:56:08;;;;;;;;;;;;;;;;;;5132612;27;19931;-83
2021/11/02 10:58:37;;;;;;;;;;;;;;;;;;5132479;27;20278;-84
2021/11/02 11:01:05;;;;;;;;;;;;;;;;;;5131508;27;19923;-81
2021/11/02 11:03:32;;;;;;;;;;;;;;;;;;5132576;27;19927;-78
2021/11/02 11:06:00;;;;;;;;;;;;;;;;;;5124069;27;19924;-78
2021/11/02 11:08:31;;;;;;;;;;;;;;;;;;5131434;27;19928;-78
2021/11/02 11:11:18;;;;;;;;;;;;;;;;;;5131623;27;19927;-78
2021/11/02 11:13:47;;;;;;;;;;;;;;;;;;5121180;27;20268;-79
2021/11/02 11:16:16;;;;;;;;;;;;;;;;;;5129396;27;20022;-79
2021/11/02 11:18:54;;;;;;;;;;;;;;;;;;5110271;28;19927;-80
2021/11/02 11:21:22;;;;;;;;;;;;;;;;;;5111199;28;19928;-80
2021/11/02 11:23:54;;;;;;;;;;;;;;;;;;5111077;28;19931;-79
2021/11/02 11:26:23;;;;;;;;;;;;;;;;;;5110950;28;19939;-79
2021/11/02 11:28:53;;;;;;;;;;;;;;;;;;5110820;28;19927;-80
2021/11/02 11:31:22;;;;;;;;;;;;;;;;;;5110685;28;19923;-79
2021/11/02 11:33:51;;;;;;;;;;;;;;;;;;5111146;28;19931;-80
2021/11/02 11:36:20;;;;;;;;;;;;;;;;;;5114795;27;20280;-79
2021/11/02 11:38:48;;;;;;;;;;;;;;;;;;5130378;27;19927;-80
2021/11/02 11:41:15;;;;;;;;;;;;;;;;;;5131137;27;19953;-80
2021/11/02 11:43:43;;;;;;;;;;;;;;;;;;5131438;27;19928;-79
2021/11/02 11:46:12;;;;;;;;;;;;;;;;;;5131519;27;19934;-79
2021/11/02 11:48:42;;;;;;;;;;;;;;;;;;5130544;27;19935;-80
2021/11/02 11:51:19;;;;;;;;;;;;;;;;;;5130945;27;19928;-80
2021/11/02 11:53:47;;;;;;;;;;;;;;;;;;5130260;27;19934;-80
2021/11/02 11:56:15;;;;;;;;;;;;;;;;;;5131083;27;19923;-80
2021/11/02 11:58:46;;;;;;;;;;;;;;;;;;5130576;27;20259;-79
2021/11/02 12:01:19;;;;;;;;;;;;;;;;;;5129638;27;19938;-79
2021/11/02 12:03:51;;;;;;;;;;;;;;;;;;5130750;27;19934;-80
2021/11/02 12:06:21;;;;;;;;;;;;;;;;;;5120165;27;19996;-79
2021/11/02 12:08:52;;;;;;;;;;;;;;;;;;5120937;27;19935;-79
2021/11/02 12:11:21;;;;;;;;;;;;;;;;;;5131095;27;19923;-80
2021/11/02 12:13:49;;;;;;;;;;;;;;;;;;5123001;27;19943;-79
2021/11/02 12:16:23;;;;;;;;;;;;;;;;;;5127456;27;20419;-80
2021/11/02 12:18:55;;;;;;;;;;;;;;;;;;5130064;27;19927;-80
2021/11/02 12:21:24;;;;;;;;;;;;;;;;;;5130862;27;19924;-79
2021/11/02 12:23:52;;;;;;;;;;;;;;;;;;5130620;27;20367;-79
2021/11/02 12:26:19;;;;;;;;;;;;;;;;;;5130795;27;19984;-80
2021/11/02 12:28:47;;;;;;;;;;;;;;;;;;5130407;27;20014;-79
2021/11/02 12:31:15;;;;;;;;;;;;;;;;;;5116383;27;19930;-80
2021/11/02 12:33:46;;;;;;;;;;;;;;;;;;5109959;27;19928;-80
2021/11/02 12:36:18;;;;;;;;;;;;;;;;;;5109543;28;19924;-79
2021/11/02 12:38:46;;;;;;;;;;;;;;;;;;5115241;27;19931;-80
2021/11/02 12:41:17;;;;;;;;;;;;;;;;;;5129744;27;20364;-79
2021/11/02 12:43:45;;;;;;;;;;;;;;;;;;5130034;27;19923;-79
2021/11/02 12:46:13;;;;;;;;;;;;;;;;;;5130126;27;20376;-79
2021/11/02 12:48:41;;;;;;;;;;;;;;;;;;5129316;27;19927;-79
2021/11/02 12:51:12;;;;;;;;;;;;;;;;;;5130171;27;20168;-77
2021/11/02 12:53:43;;;;;;;;;;;;;;;;;;5130071;27;19985;-79
2021/11/02 12:56:13;;;;;;;;;;;;;;;;;;5128103;27;19928;-78
2021/11/02 12:58:41;;;;;;;;;;;;;;;;;;5129850;27;19934;-78
2021/11/02 13:01:09;;;;;;;;;;;;;;;;;;5129701;27;19951;-81
2021/11/02 13:03:41;;;;;;;;;;;;;;;;;;5129465;27;19924;-81
2021/11/02 13:06:11;;;;;;;;;;;;;;;;;;5120558;27;20293;-81
2021/11/02 13:08:42;;;;;;;;;;;;;;;;;;5108988;28;20034;-81
2021/11/02 13:11:10;;;;;;;;;;;;;;;;;;5126794;27;19931;-81
2021/11/02 13:13:54;;;;;;;;;;;;;;;;;;5119744;27;19962;-81
2021/11/02 13:16:22;;;;;;;;;;;;;;;;;;5130391;27;20422;-81
2021/11/02 13:18:49;;;;;;;;;;;;;;;;;;5129153;27;19927;-81
2021/11/02 13:21:29;;;;;;;;;;;;;;;;;;5130541;27;19924;-81
2021/11/02 13:23:58;;;;;;;;;;;;;;;;;;5129961;27;19980;-81
2021/11/02 13:26:26;;;;;;;;;;;;;;;;;;5128396;27;19984;-81
2021/11/02 13:28:57;;;;;;;;;;;;;;;;;;5129676;27;20340;-83
2021/11/02 13:31:28;;;;;;;;;;;;;;;;;;5129441;27;19923;-81
2021/11/02 13:34:15;;;;;;;;;;;;;;;;;;5129314;27;20015;-81
2021/11/02 13:36:55;;;;;;;;;;;;;;;;;;5128668;27;20216;-81
2021/11/02 13:39:24;;;;;;;;;;;;;;;;;;5117594;27;19928;-81
2021/11/02 13:42:24;;;;;;;;;;;;;;;;;;5108554;28;20039;-81
2021/11/02 13:44:59;;;;;;;;;;;;;;;;;;5108553;28;19971;-81
2021/11/02 13:47:28;;;;;;;;;;;;;;;;;;5108721;28;20006;-80
2021/11/02 13:50:00;;;;;;;;;;;;;;;;;;5108546;28;19924;-80
2021/11/02 13:52:52;;;;;;;;;;;;;;;;;;5109192;28;19924;-81
2021/11/02 13:55:19;;;;;;;;;;;;;;;;;;5108539;28;19934;-82
2021/11/02 13:57:46;;;;;;;;;;;;;;;;;;5108405;28;20382;-83
2021/11/02 14:00:14;;;;;;;;;;;;;;;;;;5108850;28;19928;-83
2021/11/02 14:02:42;;;;;;;;;;;;;;;;;;5108041;28;19934;-82
2021/11/02 14:05:10;;;;;;;;;;;;;;;;;;5121430;27;19927;-82
2021/11/02 14:07:40;;;;;;;;;;;;;;;;;;5128948;28;20018;-81
2021/11/02 14:10:08;;;;;;;;;;;;;;;;;;5128870;28;19927;-81
2021/11/02 14:12:40;;;;;;;;;;;;;;;;;;5128736;28;20010;-81
2021/11/02 14:15:17;;;;;;;;;;;;;;;;;;5109533;28;19928;-81
2021/11/02 14:17:46;;;;;;;;;;;;;;;;;;5111805;28;20006;-83
2021/11/02 14:20:34;;;;;;;;;;;;;;;;;;5124390;27;20351;-80
2021/11/02 14:23:03;;;;;;;;;;;;;;;;;;5133308;27;19927;-79
2021/11/02 14:25:31;;;;;;;;;;;;;;;;;;5133000;27;20374;-79
2021/11/02 14:27:59;;;;;;;;;;;;;;;;;;5132987;27;20162;-79
2021/11/02 14:30:36;;;;;;;;;;;;;;;;;;5133686;27;19927;-79
2021/11/02 14:33:04;;;;;;;;;;;;;;;;;;5113138;28;19928;-79
2021/11/02 14:35:45;;;;;;;;;;;;;;;;;;5113418;28;20365;-80
2021/11/02 14:38:14;;;;;;;;;;;;;;;;;;5113000;27;20413;-82
2021/11/02 14:40:42;;;;;;;;;;;;;;;;;;5133239;27;19930;-79
2021/11/02 14:43:27;;;;;;;;;;;;;;;;;;5134292;27;19954;-81
2021/11/02 14:45:55;;;;;;;;;;;;;;;;;;5134187;27;19923;-80
2021/11/02 14:48:37;;;;;;;;;;;;;;;;;;5133436;27;20375;-80
2021/11/02 14:51:05;;;;;;;;;;;;;;;;;;5131345;27;19938;-79
2021/11/02 14:53:35;;;;;;;;;;;;;;;;;;5133590;27;19931;-79
2021/11/02 14:56:05;;;;;;;;;;;;;;;;;;5133606;27;20196;-80
2021/11/02 14:59:02;;;;;;;;;;;;;;;;;;5133368;27;19934;-79
2021/11/02 15:01:48;;;;;;;;;;;;;;;;;;5070143;28;19928;-79
2021/11/02 15:04:17;;;;;;;;;;;;;;;;;;5126467;27;20378;-81
2021/11/02 15:06:47;;;;;;;;;;;;;;;;;;5132233;27;19928;-80
2021/11/02 15:09:16;;;;;;;;;;;;;;;;;;5133127;27;20006;-79
2021/11/02 15:11:44;;;;;;;;;;;;;;;;;;5133061;27;19924;-79
2021/11/02 15:14:12;;;;;;;;;;;;;;;;;;5121249;27;19942;-79
2021/11/02 15:16:42;;;;;;;;;;;;;;;;;;5113386;28;19934;-79
2021/11/02 15:19:10;;;;;;;;;;;;;;;;;;5112888;27;20026;-80
2021/11/02 15:21:38;;;;;;;;;;;;;;;;;;5113459;27;20360;-80
2021/11/02 15:24:07;;;;;;;;;;;;;;;;;;5133672;27;19927;-80
2021/11/02 15:26:43;;;;;;;;;;;;;;;;;;5132948;27;19924;-81
2021/11/02 15:29:11;;;;;;;;;;;;;;;;;;5132938;27;19949;-79
2021/11/02 15:31:38;;;;;;;;;;;;;;;;;;5134069;27;19924;-79
2021/11/02 15:34:12;;;;;;;;;;;;;;;;;;5132717;27;19931;-79
2021/11/02 15:36:39;;;;;;;;;;;;;;;;;;5132456;27;19923;-80
2021/11/02 15:39:07;;;;;;;;;;;;;;;;;;5133046;27;19927;-78
2021/11/02 15:41:34;;;;;;;;;;;;;;;;;;5133093;27;19927;-79
2021/11/02 15:44:04;;;;;;;;;;;;;;;;;;5132899;27;20336;-81
2021/11/02 15:46:32;;;;;;;;;;;;;;;;;;5132805;27;20363;-79
2021/11/02 15:49:02;;;;;;;;;;;;;;;;;;5131824;27;20359;-79
2021/11/02 15:51:31;;;;;;;;;;;;;;;;;;5134362;27;20266;-81
2021/11/02 15:53:59;;;;;;;;;;;;;;;;;;5133792;27;19943;-79
2021/11/02 15:56:27;;;;;;;;;;;;;;;;;;5134503;27;19923;-81
2021/11/02 15:58:56;;;;;;;;;;;;;;;;;;5134424;27;20353;-79
2021/11/02 16:01:29;;;;;;;;;;;;;;;;;;5134322;27;20362;-81
2021/11/02 16:04:06;;;;;;;;;;;;;;;;;;5134167;27;19923;-80
2021/11/02 16:06:33;;;;;;;;;;;;;;;;;;5133274;27;20287;-79
2021/11/02 16:09:03;;;;;;;;;;;;;;;;;;5134161;27;19930;-79
2021/11/02 16:11:30;;;;;;;;;;;;;;;;;;5134010;27;19927;-80
2021/11/02 16:14:04;;;;;;;;;;;;;;;;;;5124383;27;20179;-79
2021/11/02 16:16:33;;;;;;;;;;;;;;;;;;5113280;28;19927;-81
2021/11/02 16:19:00;;;;;;;;;;;;;;;;;;5112829;28;19924;-81
2021/11/02 16:21:32;;;;;;;;;;;;;;;;;;5113542;28;19938;-80
2021/11/02 16:24:06;;;;;;;;;;;;;;;;;;5113111;28;19927;-78
2021/11/02 16:26:37;;;;;;;;;;;;;;;;;;5113198;28;19950;-79
2021/11/02 16:29:07;;;;;;;;;;;;;;;;;;5113135;27;19931;-80
2021/11/02 16:31:35;;;;;;;;;;;;;;;;;;5113254;27;19923;-79
2021/11/02 16:34:15;;;;;;;;;;;;;;;;;;5113016;28;19927;-81
2021/11/02 16:36:42;;;;;;;;;;;;;;;;;;5112039;27;19927;-79
2021/11/02 16:39:19;;;;;;;;;;;;;;;;;;5112068;28;19934;-79
2021/11/02 16:41:47;;;;;;;;;;;;;;;;;;5112773;27;20337;-79
2021/11/02 16:44:16;;;;;;;;;;;;;;;;;;5112744;28;20276;-80
2021/11/02 16:46:46;;;;;;;;;;;;;;;;;;5112727;28;19988;-79
2021/11/02 16:49:14;;;;;;;;;;;;;;;;;;5112163;28;20305;-81
2021/11/02 16:51:46;;;;;;;;;;;;;;;;;;5112909;28;19938;-81
2021/11/02 16:54:14;;;;;;;;;;;;;;;;;;5112532;28;20260;-79
2021/11/02 16:56:57;;;;;;;;;;;;;;;;;;5112307;28;19927;-79
2021/11/02 16:59:41;;;;;;;;;;;;;;;;;;5112082;28;20022;-79
2021/11/02 17:02:15;;;;;;;;;;;;;;;;;;5112253;28;19938;-81
2021/11/02 17:04:42;;;;;;;;;;;;;;;;;;5112103;28;19971;-80
2021/11/02 17:07:10;;;;;;;;;;;;;;;;;;5111613;28;20279;-78
2021/11/02 17:09:40;;;;;;;;;;;;;;;;;;5112397;28;19971;-79
2021/11/02 17:12:09;;;;;;;;;;;;;;;;;;5117272;27;19928;-79
2021/11/02 17:14:40;;;;;;;;;;;;;;;;;;5117626;27;19924;-80
2021/11/02 17:17:09;;;;;;;;;;;;;;;;;;5111823;28;19932;-79
2021/11/02 17:19:44;;;;;;;;;;;;;;;;;;5111769;28;19923;-78
2021/11/02 17:22:14;;;;;;;;;;;;;;;;;;5112081;28;19943;-80
2021/11/02 17:24:41;;;;;;;;;;;;;;;;;;5111971;28;19985;-81
2021/11/02 17:27:09;;;;;;;;;;;;;;;;;;5112275;28;19924;-81
2021/11/02 17:29:36;;;;;;;;;;;;;;;;;;5112149;28;19923;-80
2021/11/02 17:32:04;;;;;;;;;;;;;;;;;;5111909;28;19924;-79
2021/11/02 17:34:36;;;;;;;;;;;;;;;;;;5112015;28;20007;-79
2021/11/02 17:37:06;;;;;;;;;;;;;;;;;;5110966;28;19928;-80
2021/11/02 17:39:34;;;;;;;;;;;;;;;;;;5112196;28;20030;-81
2021/11/02 17:42:03;;;;;;;;;;;;;;;;;;5111868;28;19924;-79
2021/11/02 17:44:31;;;;;;;;;;;;;;;;;;5111848;28;19990;-79
2021/11/02 17:46:58;;;;;;;;;;;;;;;;;;5111857;28;19928;-81
2021/11/02 17:49:25;;;;;;;;;;;;;;;;;;5111372;28;19924;-79
2021/11/02 17:51:53;;;;;;;;;;;;;;;;;;5111561;28;19928;-80
2021/11/02 17:54:22;;;;;;;;;;;;;;;;;;5111777;28;20222;-80
2021/11/02 17:56:53;;;;;;;;;;;;;;;;;;5111663;28;19935;-79
2021/11/02 17:59:21;;;;;;;;;;;;;;;;;;5111430;28;19961;-80
2021/11/02 18:01:49;;;;;;;;;;;;;;;;;;5111642;28;19935;-79
2021/11/02 18:04:16;;;;;;;;;;;;;;;;;;5111768;28;19924;-79
2021/11/02 18:06:43;;;;;;;;;;;;;;;;;;5111362;28;19939;-81
2021/11/02 18:09:12;;;;;;;;;;;;;;;;;;5110957;28;20288;-80
2021/11/02 18:11:41;;;;;;;;;;;;;;;;;;5112166;28;20400;-79
2021/11/02 18:14:09;;;;;;;;;;;;;;;;;;5120904;28;19924;-79
2021/11/02 18:16:36;;;;;;;;;;;;;;;;;;5111733;28;19923;-79
2021/11/02 18:19:05;;;;;;;;;;;;;;;;;;5111132;28;19924;-79
2021/11/02 18:21:34;;;;;;;;;;;;;;;;;;5111473;28;19928;-79
2021/11/02 18:24:01;;;;;;;;;;;;;;;;;;5111320;28;19939;-80
2021/11/02 18:26:29;;;;;;;;;;;;;;;;;;5111048;28;20364;-79
2021/11/02 18:28:57;;;;;;;;;;;;;;;;;;5111349;28;20371;-79
2021/11/02 18:31:25;;;;;;;;;;;;;;;;;;5111630;28;19924;-79
2021/11/02 18:33:53;;;;;;;;;;;;;;;;;;5111441;28;19975;-79
2021/11/02 18:36:21;;;;;;;;;;;;;;;;;;5110734;28;19943;-79
2021/11/02 18:38:49;;;;;;;;;;;;;;;;;;5111165;28;19939;-80
2021/11/02 18:41:16;;;;;;;;;;;;;;;;;;5110985;28;19934;-80
2021/11/02 18:43:44;;;;;;;;;;;;;;;;;;5111587;28;19931;-79
2021/11/02 18:46:13;;;;;;;;;;;;;;;;;;5111279;28;20275;-79
2021/11/02 18:48:40;;;;;;;;;;;;;;;;;;5111296;28;19928;-79
2021/11/02 18:51:07;;;;;;;;;;;;;;;;;;5111156;28;19949;-79
2021/11/02 18:53:35;;;;;;;;;;;;;;;;;;5111271;28;20014;-79
2021/11/02 18:56:02;;;;;;;;;;;;;;;;;;5110793;28;19924;-80
2021/11/02 18:58:29;;;;;;;;;;;;;;;;;;5111486;28;20295;-79
2021/11/02 19:00:57;;;;;;;;;;;;;;;;;;5111122;28;19924;-80
2021/11/02 19:03:26;;;;;;;;;;;;;;;;;;5113227;28;19924;-79
2021/11/02 19:05:53;;;;;;;;;;;;;;;;;;5114704;28;19928;-79
2021/11/02 19:08:20;;;;;;;;;;;;;;;;;;5114391;28;19938;-78
2021/11/02 19:10:48;;;;;;;;;;;;;;;;;;5115155;28;20318;-79
2021/11/02 19:13:15;;;;;;;;;;;;;;;;;;5125404;27;19975;-79
2021/11/02 19:15:44;;;;;;;;;;;;;;;;;;5114550;28;19934;-79
2021/11/02 19:18:13;;;;;;;;;;;;;;;;;;5114083;28;20035;-78
2021/11/02 19:20:42;;;;;;;;;;;;;;;;;;5114555;28;20441;-79
2021/11/02 19:23:09;;;;;;;;;;;;;;;;;;5114608;28;20283;-79
2021/11/02 19:25:36;;;;;;;;;;;;;;;;;;5114214;28;20352;-79
2021/11/02 19:28:04;;;;;;;;;;;;;;;;;;5114332;28;19935;-79
2021/11/02 19:30:31;;;;;;;;;;;;;;;;;;5114264;28;19928;-80
2021/11/02 19:32:58;;;;;;;;;;;;;;;;;;5114370;28;19928;-80
2021/11/02 19:35:25;;;;;;;;;;;;;;;;;;5113925;28;20348;-80
2021/11/02 19:37:53;;;;;;;;;;;;;;;;;;5113659;28;19924;-80
2021/11/02 19:40:21;;;;;;;;;;;;;;;;;;5114088;28;20412;-80
2021/11/02 19:42:49;;;;;;;;;;;;;;;;;;5114328;28;20390;-80
2021/11/02 19:45:16;;;;;;;;;;;;;;;;;;5114221;28;20329;-79
2021/11/02 19:47:44;;;;;;;;;;;;;;;;;;5114103;28;19928;-79
2021/11/02 19:50:12;;;;;;;;;;;;;;;;;;5113411;28;19970;-82
2021/11/02 19:52:41;;;;;;;;;;;;;;;;;;5114078;28;19936;-81
2021/11/02 19:55:12;;;;;;;;;;;;;;;;;;5113439;28;19935;-80
2021/11/02 19:57:39;;;;;;;;;;;;;;;;;;5114275;28;20094;-81
2021/11/02 20:00:07;;;;;;;;;;;;;;;;;;5114199;28;19927;-80
2021/11/02 20:02:35;;;;;;;;;;;;;;;;;;5114074;28;19950;-81
2021/11/02 20:05:04;;;;;;;;;;;;;;;;;;5113476;27;19924;-81
2021/11/02 20:07:33;;;;;;;;;;;;;;;;;;5113421;28;19992;-81
2021/11/02 20:10:07;;;;;;;;;;;;;;;;;;5113832;28;19996;-81
2021/11/02 20:12:41;;;;;;;;;;;;;;;;;;5122298;27;19928;-78
2021/11/02 20:15:08;;;;;;;;;;;;;;;;;;5114166;27;19928;-79
2021/11/02 20:17:35;;;;;;;;;;;;;;;;;;5113500;28;20264;-80
2021/11/02 20:20:03;;;;;;;;;;;;;;;;;;5113565;28;20398;-78
2021/11/02 20:22:30;;;;;;;;;;;;;;;;;;5113250;28;19938;-79
2021/11/02 20:24:58;;;;;;;;;;;;;;;;;;5112905;28;20375;-78
2021/11/02 20:27:26;;;;;;;;;;;;;;;;;;5113474;28;19954;-79
2021/11/02 20:29:55;;;;;;;;;;;;;;;;;;5112967;28;20379;-79
2021/11/02 20:32:24;;;;;;;;;;;;;;;;;;5113414;28;20022;-79
2021/11/02 20:34:52;;;;;;;;;;;;;;;;;;5113485;28;19928;-79
2021/11/02 20:37:23;;;;;;;;;;;;;;;;;;5112587;28;19924;-79
2021/11/02 20:39:55;;;;;;;;;;;;;;;;;;5112874;28;19927;-81
2021/11/02 20:42:23;;;;;;;;;;;;;;;;;;5112953;28;19924;-81
2021/11/02 20:44:53;;;;;;;;;;;;;;;;;;5113061;28;19927;-80
2021/11/02 20:47:22;;;;;;;;;;;;;;;;;;5113393;28;19946;-79
2021/11/02 20:49:53;;;;;;;;;;;;;;;;;;5112568;28;19923;-80
2021/11/02 20:52:20;;;;;;;;;;;;;;;;;;5113212;28;20026;-79
2021/11/02 20:54:47;;;;;;;;;;;;;;;;;;5112087;28;19924;-79
2021/11/02 20:57:16;;;;;;;;;;;;;;;;;;5112648;28;20361;-79
2021/11/02 20:59:43;;;;;;;;;;;;;;;;;;5112700;28;19927;-81
2021/11/02 21:02:14;;;;;;;;;;;;;;;;;;5112942;28;19924;-79
2021/11/02 21:04:43;;;;;;;;;;;;;;;;;;5112685;27;19928;-79
2021/11/02 21:07:13;;;;;;;;;;;;;;;;;;5112155;27;19939;-79
2021/11/02 21:09:45;;;;;;;;;;;;;;;;;;5112188;28;20018;-80
2021/11/02 21:12:14;;;;;;;;;;;;;;;;;;5118013;27;19923;-80
2021/11/02 21:14:43;;;;;;;;;;;;;;;;;;5117190;27;19950;-81
2021/11/02 21:17:11;;;;;;;;;;;;;;;;;;5112637;28;19938;-80
2021/11/02 21:19:40;;;;;;;;;;;;;;;;;;5112127;28;20014;-79
2021/11/02 21:22:09;;;;;;;;;;;;;;;;;;5112046;28;20264;-79
2021/11/02 21:24:37;;;;;;;;;;;;;;;;;;5111900;28;19931;-79
2021/11/02 21:27:04;;;;;;;;;;;;;;;;;;5111823;28;19928;-79
2021/11/02 21:29:32;;;;;;;;;;;;;;;;;;5112422;28;19946;-78
2021/11/02 21:31:59;;;;;;;;;;;;;;;;;;5112214;28;19924;-79
2021/11/02 21:34:27;;;;;;;;;;;;;;;;;;5112145;28;20392;-81